createdAt,value
2022-11-17T00:00:21.729Z,12.24
2022-11-17T00:02:48.206Z,12.23
2022-11-17T00:05:15.027Z,12.23
2022-11-17T00:07:45.048Z,12.23
2022-11-17T00:10:13.192Z,12.22
2022-11-17T00:12:58.230Z,12.22
2022-11-17T00:15:24.703Z,12.18
2022-11-17T00:18:10.215Z,12.20
2022-11-17T00:21:01.313Z,12.20
2022-11-17T00:23:46.619Z,12.22
2022-11-17T00:26:18.086Z,12.23
2022-11-17T00:28:44.551Z,12.25
2022-11-17T00:31:33.859Z,12.27
2022-11-17T00:34:06.502Z,12.29
2022-11-17T00:36:37.988Z,12.28
2022-11-17T00:39:05.307Z,12.27
2022-11-17T00:41:31.875Z,12.29
2022-11-17T00:43:58.289Z,12.28
2022-11-17T00:46:24.716Z,12.31
2022-11-17T00:48:51.262Z,12.30
2022-11-17T00:51:17.994Z,12.27
2022-11-17T00:53:44.465Z,12.24
2022-11-17T00:56:10.909Z,12.20
2022-11-17T00:58:37.551Z,12.20
2022-11-17T01:01:04.602Z,12.15
2022-11-17T01:03:31.160Z,12.07
2022-11-17T01:06:06.943Z,12.04
2022-11-17T01:08:34.539Z,11.98
2022-11-17T01:11:10.372Z,11.97
2022-11-17T01:13:38.295Z,11.94
2022-11-17T01:16:08.601Z,11.94
2022-11-17T01:18:35.526Z,11.92
2022-11-17T01:21:13.824Z,11.93
2022-11-17T01:23:42.612Z,11.88
2022-11-17T01:26:14.974Z,11.88
2022-11-17T01:28:42.848Z,11.87
2022-11-17T01:31:15.550Z,11.85
2022-11-17T01:33:42.508Z,11.85
2022-11-17T01:36:13.652Z,11.83
2022-11-17T01:38:40.082Z,11.82
2022-11-17T01:41:12.019Z,11.82
2022-11-17T01:43:44.010Z,11.77
2022-11-17T01:46:31.914Z,11.73
2022-11-17T01:49:05.238Z,11.68
2022-11-17T01:51:35.338Z,11.62
2022-11-17T01:54:02.691Z,11.63
2022-11-17T01:56:35.880Z,11.59
2022-11-17T01:59:07.231Z,11.60
2022-11-17T02:01:33.934Z,11.56
2022-11-17T02:04:00.897Z,11.56
2022-11-17T02:06:34.037Z,11.52
2022-11-17T02:09:02.630Z,11.51
2022-11-17T02:11:35.961Z,11.47
2022-11-17T02:14:03.766Z,11.46
2022-11-17T02:16:30.586Z,11.45
2022-11-17T02:18:57.123Z,11.39
2022-11-17T02:21:38.701Z,11.38
2022-11-17T02:24:58.690Z,11.39
2022-11-17T02:28:07.272Z,11.33
2022-11-17T02:30:41.627Z,11.32
2022-11-17T02:33:37.681Z,11.34
2022-11-17T02:36:10.748Z,11.32
2022-11-17T02:38:39.940Z,11.37
2022-11-17T02:41:16.399Z,11.31
2022-11-17T02:44:04.988Z,11.34
2022-11-17T02:46:39.101Z,11.35
2022-11-17T02:49:13.634Z,11.32
2022-11-17T02:51:41.285Z,11.32
2022-11-17T02:54:09.139Z,11.34
2022-11-17T02:56:40.918Z,11.29
2022-11-17T02:59:07.408Z,11.28
2022-11-17T03:02:03.360Z,11.27
2022-11-17T03:04:34.440Z,11.25
2022-11-17T03:07:28.979Z,11.22
2022-11-17T03:10:13.865Z,11.22
2022-11-17T03:12:50.068Z,11.23
2022-11-17T03:15:26.523Z,11.22
2022-11-17T03:17:59.383Z,11.27
2022-11-17T03:20:39.531Z,11.26
2022-11-17T03:23:19.392Z,11.28
2022-11-17T03:25:51.864Z,11.25
2022-11-17T03:28:21.735Z,11.28
2022-11-17T03:30:49.308Z,11.34
2022-11-17T03:33:20.073Z,11.38
2022-11-17T03:35:53.858Z,11.42
2022-11-17T03:38:26.069Z,11.44
2022-11-17T03:40:55.986Z,11.45
2022-11-17T03:43:25.801Z,11.50
2022-11-17T03:45:55.940Z,11.50
2022-11-17T03:48:48.751Z,11.51
2022-11-17T03:51:19.596Z,11.51
2022-11-17T03:53:47.355Z,11.52
2022-11-17T03:56:13.688Z,11.48
2022-11-17T03:58:51.211Z,11.51
2022-11-17T04:01:20.758Z,11.51
2022-11-17T04:03:48.695Z,11.48
2022-11-17T04:06:15.097Z,11.47
2022-11-17T04:08:41.732Z,11.44
2022-11-17T04:11:26.700Z,11.47
2022-11-17T04:14:11.809Z,11.47
2022-11-17T04:16:38.179Z,11.43
2022-11-17T04:19:04.647Z,11.43
2022-11-17T04:21:31.073Z,11.41
2022-11-17T04:23:57.911Z,11.44
2022-11-17T04:26:43.630Z,11.44
2022-11-17T04:29:10.076Z,11.48
2022-11-17T04:31:36.468Z,11.47
2022-11-17T04:34:04.783Z,11.50
2022-11-17T04:36:37.769Z,11.50
2022-11-17T04:39:04.241Z,11.48
2022-11-17T04:41:49.659Z,11.47
2022-11-17T04:44:17.562Z,11.45
2022-11-17T04:46:45.855Z,11.45
2022-11-17T04:49:13.771Z,11.44
2022-11-17T04:51:40.793Z,11.44
2022-11-17T04:54:08.932Z,11.44
2022-11-17T04:56:35.738Z,11.45
2022-11-17T04:59:02.389Z,11.46
2022-11-17T05:01:28.914Z,11.44
2022-11-17T05:04:00.641Z,11.48
2022-11-17T05:06:32.430Z,11.49
2022-11-17T05:09:01.221Z,11.49
2022-11-17T05:11:48.584Z,11.47
2022-11-17T05:14:17.847Z,11.45
2022-11-17T05:17:08.638Z,11.48
2022-11-17T05:19:44.342Z,11.48
2022-11-17T05:22:30.846Z,11.46
2022-11-17T05:24:57.394Z,11.48
2022-11-17T05:27:24.888Z,11.52
2022-11-17T05:29:51.374Z,11.55
2022-11-17T05:32:18.395Z,11.56
2022-11-17T05:34:45.026Z,11.59
2022-11-17T05:37:11.599Z,11.65
2022-11-17T05:39:38.001Z,11.67
2022-11-17T05:42:04.787Z,11.70
2022-11-17T05:44:31.306Z,11.73
2022-11-17T05:46:57.817Z,11.74
2022-11-17T05:49:24.301Z,11.75
2022-11-17T05:51:52.845Z,11.78
2022-11-17T05:54:20.048Z,11.79
2022-11-17T05:57:05.245Z,11.81
2022-11-17T05:59:41.535Z,11.79
2022-11-17T06:02:15.131Z,11.83
2022-11-17T06:04:41.536Z,11.81
2022-11-17T06:07:08.175Z,11.85
2022-11-17T06:09:39.222Z,11.88
2022-11-17T06:12:06.534Z,11.89
2022-11-17T06:14:34.317Z,11.89
2022-11-17T06:17:07.567Z,11.93
2022-11-17T06:19:44.062Z,11.97
2022-11-17T06:22:12.731Z,12.01
2022-11-17T06:24:42.018Z,12.03
2022-11-17T06:27:10.207Z,12.08
2022-11-17T06:29:42.418Z,12.10
2022-11-17T06:32:10.900Z,12.10
2022-11-17T06:34:37.532Z,12.14
2022-11-17T06:37:03.943Z,12.16
2022-11-17T06:39:30.410Z,12.19
2022-11-17T06:41:56.829Z,12.21
2022-11-17T06:44:23.235Z,12.22
2022-11-17T06:46:49.632Z,12.25
2022-11-17T06:49:16.138Z,12.27
2022-11-17T06:51:45.333Z,12.28
2022-11-17T06:54:14.472Z,12.33
2022-11-17T06:56:41.104Z,12.34
2022-11-17T06:59:07.532Z,12.33
2022-11-17T07:01:33.934Z,12.32
2022-11-17T07:04:00.333Z,12.35
2022-11-17T07:06:26.709Z,12.33
2022-11-17T07:08:53.439Z,12.29
2022-11-17T07:11:19.839Z,12.34
2022-11-17T07:13:46.412Z,12.40
2022-11-17T07:16:23.245Z,12.42
2022-11-17T07:18:52.027Z,12.39
2022-11-17T07:21:18.442Z,12.33
2022-11-17T07:23:45.707Z,12.37
2022-11-17T07:26:12.581Z,12.41
2022-11-17T07:28:39.192Z,12.43
2022-11-17T07:31:07.669Z,12.41
2022-11-17T07:33:34.725Z,12.39
2022-11-17T07:36:09.869Z,12.35
2022-11-17T07:38:37.589Z,12.24
2022-11-17T07:41:05.950Z,12.19
2022-11-17T07:43:33.600Z,12.13
2022-11-17T07:46:04.228Z,12.08
2022-11-17T07:48:30.665Z,12.06
2022-11-17T07:51:00.476Z,12.07
2022-11-17T07:53:26.966Z,12.05
2022-11-17T07:55:53.453Z,12.05
2022-11-17T07:58:20.021Z,12.04
2022-11-17T08:00:46.460Z,12.05
2022-11-17T08:03:12.948Z,12.02
2022-11-17T08:05:43.336Z,12.04
2022-11-17T08:08:10.428Z,12.06
2022-11-17T08:10:36.898Z,12.09
2022-11-17T08:13:03.470Z,12.09
2022-11-17T08:15:30.719Z,12.09
2022-11-17T08:17:59.447Z,12.12
2022-11-17T08:20:28.577Z,12.18
2022-11-17T08:22:55.796Z,12.24
2022-11-17T08:25:24.541Z,12.28
2022-11-17T08:27:54.620Z,12.32
2022-11-17T08:30:21.836Z,12.33
2022-11-17T08:32:50.014Z,12.33
2022-11-17T08:35:17.165Z,12.32
2022-11-17T08:37:43.772Z,12.33
2022-11-17T08:40:11.337Z,12.35
2022-11-17T08:42:37.852Z,12.32
2022-11-17T08:45:05.909Z,12.35
2022-11-17T08:47:32.644Z,12.32
2022-11-17T08:49:59.075Z,12.33
2022-11-17T08:52:27.605Z,12.36
2022-11-17T08:54:54.415Z,12.39
2022-11-17T08:57:23.788Z,12.50
2022-11-17T08:59:50.767Z,12.57
2022-11-17T09:02:17.413Z,12.69
2022-11-17T09:04:46.013Z,12.75
2022-11-17T09:07:12.559Z,12.86
2022-11-17T09:09:39.042Z,12.90
2022-11-17T09:12:06.202Z,12.93
2022-11-17T09:14:32.668Z,12.97
2022-11-17T09:16:59.315Z,12.98
2022-11-17T09:19:26.225Z,13.04
2022-11-17T09:21:52.692Z,13.08
2022-11-17T09:24:19.145Z,13.14
2022-11-17T09:26:45.550Z,13.15
2022-11-17T09:29:12.060Z,13.18
2022-11-17T09:31:38.601Z,13.25
2022-11-17T09:34:06.053Z,13.27
2022-11-17T09:36:33.434Z,13.30
2022-11-17T09:38:59.874Z,13.33
2022-11-17T09:41:44.143Z,13.44
2022-11-17T09:44:31.874Z,13.39
2022-11-17T09:47:06.183Z,13.43
2022-11-17T09:49:44.802Z,13.46
2022-11-17T09:52:28.995Z,13.42
2022-11-17T09:54:59.931Z,13.48
2022-11-17T09:57:26.743Z,13.50
2022-11-17T10:00:10.779Z,13.51
2022-11-17T10:02:37.224Z,13.49
2022-11-17T10:05:03.906Z,13.46
2022-11-17T10:07:32.763Z,13.38
2022-11-17T10:10:02.244Z,13.43
2022-11-17T10:12:38.801Z,13.34
2022-11-17T10:15:23.702Z,13.25
2022-11-17T10:17:51.510Z,12.98
2022-11-17T10:20:18.990Z,12.93
2022-11-17T10:22:47.695Z,13.00
2022-11-17T10:25:38.552Z,13.12
2022-11-17T10:28:23.650Z,12.99
2022-11-17T10:31:00.681Z,12.94
2022-11-17T10:33:53.259Z,12.83
2022-11-17T10:36:31.810Z,12.73
2022-11-17T10:39:00.288Z,12.66
2022-11-17T10:41:38.685Z,12.65
2022-11-17T10:44:13.026Z,12.69
2022-11-17T10:47:02.703Z,12.86
2022-11-17T10:49:35.312Z,12.98
2022-11-17T10:52:15.131Z,13.11
2022-11-17T10:54:42.185Z,13.21
2022-11-17T10:57:15.132Z,13.25
2022-11-17T10:59:45.974Z,13.28
2022-11-17T11:02:39.696Z,13.27
2022-11-17T11:05:13.308Z,13.27
2022-11-17T11:07:40.801Z,13.29
2022-11-17T11:10:17.856Z,13.29
2022-11-17T11:13:09.132Z,13.28
2022-11-17T11:15:36.908Z,13.28
2022-11-17T11:18:15.534Z,13.25
2022-11-17T11:20:54.157Z,13.29
2022-11-17T11:23:44.337Z,13.26
2022-11-17T11:26:29.547Z,13.27
2022-11-17T11:29:10.767Z,13.30
2022-11-17T11:31:52.358Z,13.34
2022-11-17T11:34:37.123Z,13.52
2022-11-17T11:37:12.424Z,13.75
2022-11-17T11:39:51.133Z,13.98
2022-11-17T11:42:51.569Z,14.07
2022-11-17T11:45:24.132Z,14.08
2022-11-17T11:47:50.454Z,14.03
2022-11-17T11:50:24.574Z,14.10
2022-11-17T11:52:57.371Z,14.08
2022-11-17T11:55:31.740Z,14.09
2022-11-17T11:58:08.549Z,14.20
2022-11-17T12:00:35.184Z,14.18
2022-11-17T12:03:12.467Z,14.26
2022-11-17T12:06:27.781Z,14.27
2022-11-17T12:09:19.815Z,14.26
2022-11-17T12:12:00.277Z,14.25
2022-11-17T12:14:29.186Z,14.31
2022-11-17T12:17:03.449Z,14.32
2022-11-17T12:19:50.761Z,14.38
2022-11-17T12:22:29.327Z,14.39
2022-11-17T12:24:59.145Z,14.58
2022-11-17T12:27:34.416Z,14.90
2022-11-17T12:30:03.005Z,15.16
2022-11-17T12:32:44.475Z,15.83
2022-11-17T12:35:26.995Z,15.99
2022-11-17T12:38:18.734Z,16.26
2022-11-17T12:40:52.792Z,16.70
2022-11-17T12:43:20.602Z,16.78
2022-11-17T12:45:59.090Z,16.65
2022-11-17T12:48:35.038Z,16.33
2022-11-17T12:51:26.978Z,16.28
2022-11-17T12:54:22.127Z,16.19
2022-11-17T12:56:57.471Z,15.88
2022-11-17T12:59:39.627Z,15.67
2022-11-17T13:02:15.517Z,16.14
2022-11-17T13:05:23.526Z,16.75
2022-11-17T13:07:50.762Z,17.36
2022-11-17T13:10:29.357Z,17.60
2022-11-17T13:13:10.896Z,17.58
2022-11-17T13:15:38.020Z,17.42
2022-11-17T13:18:10.672Z,17.50
2022-11-17T13:20:38.690Z,17.43
2022-11-17T13:23:25.806Z,16.96
2022-11-17T13:26:18.839Z,16.74
2022-11-17T13:28:45.849Z,16.49
2022-11-17T13:31:20.785Z,16.48
2022-11-17T13:34:21.490Z,16.81
2022-11-17T13:36:56.681Z,17.50
2022-11-17T13:39:27.484Z,18.09
2022-11-17T13:41:55.407Z,17.90
2022-11-17T13:44:26.818Z,17.70
2022-11-17T13:46:53.377Z,17.52
2022-11-17T13:49:37.019Z,17.62
2022-11-17T13:52:05.556Z,17.82
2022-11-17T13:54:32.932Z,17.70
2022-11-17T13:57:08.779Z,17.63
2022-11-17T13:59:37.296Z,17.48
2022-11-17T14:02:21.641Z,17.47
2022-11-17T14:05:09.693Z,17.37
2022-11-17T14:07:38.475Z,17.16
2022-11-17T14:10:20.636Z,17.23
2022-11-17T14:12:47.522Z,17.08
2022-11-17T14:15:26.381Z,16.59
2022-11-17T14:17:55.321Z,16.43
2022-11-17T14:20:24.853Z,16.21
2022-11-17T14:23:01.194Z,15.89
2022-11-17T14:25:29.111Z,15.83
2022-11-17T14:27:55.650Z,15.68
2022-11-17T14:30:22.430Z,15.51
2022-11-17T14:32:48.921Z,15.56
2022-11-17T14:35:15.698Z,15.66
2022-11-17T14:37:42.720Z,15.59
2022-11-17T14:40:13.331Z,15.48
2022-11-17T14:42:41.398Z,15.31
2022-11-17T14:45:17.230Z,15.26
2022-11-17T14:47:43.945Z,15.25
2022-11-17T14:50:14.277Z,15.11
2022-11-17T14:52:42.373Z,15.10
2022-11-17T14:55:10.681Z,15.03
2022-11-17T14:57:37.161Z,14.93
2022-11-17T15:00:06.230Z,14.71
2022-11-17T15:02:33.520Z,14.61
2022-11-17T15:05:00.495Z,14.58
2022-11-17T15:07:27.633Z,14.52
2022-11-17T15:09:54.714Z,14.47
2022-11-17T15:12:21.602Z,14.38
2022-11-17T15:14:48.280Z,14.34
2022-11-17T15:17:14.948Z,14.26
2022-11-17T15:19:42.419Z,14.23
2022-11-17T15:22:08.814Z,14.18
2022-11-17T15:24:35.181Z,14.17
2022-11-17T15:27:01.554Z,14.17
2022-11-17T15:29:28.030Z,14.13
2022-11-17T15:31:54.843Z,14.04
2022-11-17T15:34:21.260Z,14.03
2022-11-17T15:36:48.442Z,14.00
2022-11-17T15:39:15.275Z,13.94
2022-11-17T15:41:42.042Z,13.92
2022-11-17T15:44:08.497Z,13.88
2022-11-17T15:46:35.353Z,13.84
2022-11-17T15:49:01.875Z,13.81
2022-11-17T15:51:28.714Z,13.77
2022-11-17T15:53:59.692Z,13.76
2022-11-17T15:56:33.767Z,13.73
2022-11-17T15:59:03.077Z,13.69
2022-11-17T16:01:33.397Z,13.66
2022-11-17T16:04:01.983Z,13.63
2022-11-17T16:06:29.719Z,13.59
2022-11-17T16:08:56.280Z,13.54
2022-11-17T16:11:23.618Z,13.50
2022-11-17T16:13:57.577Z,13.46
2022-11-17T16:16:27.082Z,13.40
2022-11-17T16:18:53.928Z,13.31
2022-11-17T16:21:20.696Z,13.28
2022-11-17T16:23:49.866Z,13.23
2022-11-17T16:26:18.378Z,13.10
2022-11-17T16:28:46.664Z,13.03
2022-11-17T16:31:14.948Z,13.02
2022-11-17T16:33:46.427Z,12.98
2022-11-17T16:36:13.015Z,12.94
2022-11-17T16:38:49.795Z,12.93
2022-11-17T16:41:28.584Z,12.88
2022-11-17T16:43:55.450Z,12.87
2022-11-17T16:46:25.118Z,12.86
2022-11-17T16:48:52.008Z,12.84
2022-11-17T16:51:19.755Z,12.84
2022-11-17T16:53:50.172Z,12.79
2022-11-17T16:56:16.692Z,12.74
2022-11-17T16:58:43.071Z,12.70
2022-11-17T17:01:12.594Z,12.66
2022-11-17T17:03:40.090Z,12.64
2022-11-17T17:06:08.263Z,12.59
2022-11-17T17:08:36.081Z,12.56
2022-11-17T17:11:14.057Z,12.53
2022-11-17T17:13:42.210Z,12.51
2022-11-17T17:16:11.204Z,12.52
2022-11-17T17:18:38.388Z,12.49
2022-11-17T17:21:11.955Z,12.46
2022-11-17T17:23:38.528Z,12.42
2022-11-17T17:26:19.415Z,12.41
2022-11-17T17:28:47.238Z,12.35
2022-11-17T17:31:21.093Z,12.34
2022-11-17T17:33:48.857Z,12.31
2022-11-17T17:36:17.852Z,12.33
2022-11-17T17:38:45.982Z,12.30
2022-11-17T17:41:17.635Z,12.24
2022-11-17T17:43:45.779Z,12.22
2022-11-17T17:46:15.870Z,12.20
2022-11-17T17:48:44.371Z,12.17
2022-11-17T17:51:13.889Z,12.18
2022-11-17T17:53:40.894Z,12.22
2022-11-17T17:56:09.668Z,12.24
2022-11-17T17:58:40.418Z,12.23
2022-11-17T18:01:12.594Z,12.23
2022-11-17T18:03:39.641Z,12.20
2022-11-17T18:06:06.573Z,12.20
2022-11-17T18:08:35.493Z,12.17
2022-11-17T18:11:07.328Z,12.16
2022-11-17T18:13:36.042Z,12.14
2022-11-17T18:16:04.603Z,12.12
2022-11-17T18:18:31.066Z,12.12
2022-11-17T18:21:10.886Z,12.12
2022-11-17T18:23:38.059Z,12.09
2022-11-17T18:26:19.739Z,12.09
2022-11-17T18:28:57.349Z,12.06
2022-11-17T18:31:26.264Z,12.02
2022-11-17T18:34:03.773Z,12.01
2022-11-17T18:36:30.853Z,11.98
2022-11-17T18:38:58.622Z,11.95
2022-11-17T18:41:26.997Z,11.93
2022-11-17T18:43:54.875Z,11.92
2022-11-17T18:46:23.379Z,11.89
2022-11-17T18:48:51.791Z,11.88
2022-11-17T18:51:24.411Z,11.85
2022-11-17T18:53:52.434Z,11.78
2022-11-17T18:56:24.105Z,11.77
2022-11-17T18:58:51.215Z,11.74
2022-11-17T19:01:20.290Z,11.73
2022-11-17T19:03:49.709Z,11.71
2022-11-17T19:06:18.339Z,11.70
2022-11-17T19:08:45.593Z,11.65
2022-11-17T19:11:12.746Z,11.62
2022-11-17T19:13:40.766Z,11.59
2022-11-17T19:16:17.836Z,11.56
2022-11-17T19:18:46.135Z,11.52
2022-11-17T19:21:21.116Z,11.49
2022-11-17T19:23:52.450Z,11.45
2022-11-17T19:26:24.788Z,11.40
2022-11-17T19:28:57.696Z,11.37
2022-11-17T19:31:28.502Z,11.37
2022-11-17T19:37:02.429Z,11.28
2022-11-17T19:39:43.884Z,11.29
2022-11-17T19:42:12.184Z,11.27
2022-11-17T19:44:41.385Z,11.23
2022-11-17T19:47:13.486Z,11.20
2022-11-17T19:49:39.914Z,11.16
2022-11-17T19:52:11.676Z,11.15
2022-11-17T19:57:21.414Z,11.08
2022-11-17T19:59:48.252Z,11.05
2022-11-17T20:02:14.653Z,11.05
2022-11-17T20:04:41.135Z,11.03
2022-11-17T20:07:10.909Z,11.01
2022-11-17T20:09:37.428Z,10.97
2022-11-17T20:12:13.324Z,10.93
2022-11-17T20:14:44.391Z,10.87
2022-11-17T20:17:10.815Z,10.81
2022-11-17T20:19:37.245Z,10.74
2022-11-17T20:22:03.692Z,10.68
2022-11-17T20:24:30.143Z,10.62
2022-11-17T20:26:56.535Z,10.58
2022-11-17T20:29:34.781Z,10.53
2022-11-17T20:32:02.945Z,10.49
2022-11-17T20:34:35.256Z,10.45
2022-11-17T20:37:01.772Z,10.42
2022-11-17T20:39:28.167Z,10.38
2022-11-17T20:41:54.641Z,10.33
2022-11-17T20:44:23.994Z,10.29
2022-11-17T20:46:56.873Z,10.25
2022-11-17T20:49:26.453Z,10.19
2022-11-17T20:51:52.930Z,10.15
2022-11-17T20:54:19.818Z,10.10
2022-11-17T20:56:52.878Z,10.06
2022-11-17T20:59:20.351Z,10.03
2022-11-17T21:02:05.479Z,10.01
2022-11-17T21:04:38.190Z,9.96
2022-11-17T21:09:48.569Z,9.91
2022-11-17T21:12:14.972Z,9.90
2022-11-17T21:14:47.083Z,9.91
2022-11-17T21:17:33.453Z,9.88
2022-11-17T21:20:12.721Z,9.89
2022-11-17T21:22:39.164Z,9.91
2022-11-17T21:25:06.044Z,9.91
2022-11-17T21:27:32.447Z,9.95
2022-11-17T21:29:59.176Z,9.98
2022-11-17T21:32:25.641Z,10.03
2022-11-17T21:34:52.947Z,10.07
2022-11-17T21:37:21.476Z,10.09
2022-11-17T21:39:47.891Z,10.09
2022-11-17T21:42:14.538Z,10.08
2022-11-17T21:44:41.311Z,10.10
2022-11-17T21:47:09.297Z,10.07
2022-11-17T21:49:35.959Z,10.09
2022-11-17T21:52:02.997Z,10.10
2022-11-17T21:54:29.362Z,10.14
2022-11-17T21:56:55.819Z,10.15
2022-11-17T21:59:22.240Z,10.16
2022-11-17T22:01:48.639Z,10.18
2022-11-17T22:04:15.802Z,10.18
2022-11-17T22:06:43.382Z,10.19
2022-11-17T22:09:09.806Z,10.16
2022-11-17T22:11:37.936Z,10.18
2022-11-17T22:14:19.730Z,10.18
2022-11-17T22:16:48.236Z,10.20
2022-11-17T22:19:16.453Z,10.21
2022-11-17T22:21:43.606Z,10.21
2022-11-17T22:24:11.474Z,10.23
2022-11-17T22:26:40.859Z,10.24
2022-11-17T22:29:12.890Z,10.24
2022-11-17T22:31:39.404Z,10.23
2022-11-17T22:34:05.807Z,10.23
2022-11-17T22:36:32.349Z,10.21
2022-11-17T22:38:58.844Z,10.20
2022-11-17T22:41:26.405Z,10.19
2022-11-17T22:43:54.511Z,10.20
2022-11-17T22:46:22.860Z,10.21
2022-11-17T22:48:49.296Z,10.19
2022-11-17T22:51:37.770Z,10.21
2022-11-17T22:54:08.894Z,10.20
2022-11-17T22:56:46.806Z,10.22
2022-11-17T22:59:13.283Z,10.23
2022-11-17T23:01:40.683Z,10.23
2022-11-17T23:04:07.559Z,10.27
2022-11-17T23:06:34.228Z,10.27
2022-11-17T23:09:00.656Z,10.29
2022-11-17T23:11:38.337Z,10.31
2022-11-17T23:14:15.200Z,10.30
2022-11-17T23:16:47.147Z,10.30
2022-11-17T23:19:14.498Z,10.30
2022-11-17T23:21:41.999Z,10.29
2022-11-17T23:24:11.706Z,10.29
2022-11-17T23:26:43.755Z,10.27
2022-11-17T23:29:10.416Z,10.27
2022-11-17T23:31:36.838Z,10.30
2022-11-17T23:34:03.272Z,10.31
2022-11-17T23:36:30.748Z,10.31
2022-11-17T23:38:57.672Z,10.31
2022-11-17T23:41:24.112Z,10.33
2022-11-17T23:44:03.625Z,10.33
2022-11-17T23:46:31.334Z,10.32
2022-11-17T23:48:58.149Z,10.31
2022-11-17T23:51:26.308Z,10.31
2022-11-17T23:53:53.573Z,10.31
2022-11-17T23:56:22.483Z,10.32
2022-11-17T23:58:53.236Z,10.30
